Time;durP1;ratioP1;P1;durP2;ratioP2;P2;SDS_P1;SDS_P2;PMS_P1;PMS_P2;Temp;Humidity;BMP_temperature;BMP_pressure;BME280_temperature;BME280_humidity;BME280_pressure;Samples;Min_cycle;Max_cycle;Signal;HPM_P1;HPM_P2
2022/03/28 00:02:07;;;;;;;;;;;6.80;99.90;;;;;;5025779;28;19925;-74
2022/03/28 00:04:34;;;;;;;;;;;6.90;99.90;;;;;;5029712;28;20399;-74
2022/03/28 00:07:01;;;;;;;;;;;6.80;99.90;;;;;;5025645;28;19933;-73
2022/03/28 00:09:27;;;;;;;;;;;6.70;99.90;;;;;;5027408;28;19933;-75
2022/03/28 00:11:54;;;;;;;;;;;6.70;99.90;;;;;;5029518;28;19925;-75
2022/03/28 00:14:21;;;;;;;;;;;6.70;99.90;;;;;;5011792;28;19931;-75
2022/03/28 00:16:47;;;;;;;;;;;6.70;99.90;;;;;;5033797;28;19925;-75
2022/03/28 00:19:14;;;;;;;;;;;6.70;99.90;;;;;;5025880;28;19926;-75
2022/03/28 00:21:41;;;;;;;;;;;6.80;99.90;;;;;;5021404;28;19979;-75
2022/03/28 00:24:07;;;;;;;;;;;6.70;99.90;;;;;;5018919;28;19925;-75
2022/03/28 00:26:35;;;;;;;;;;;6.70;99.90;;;;;;5012969;28;19940;-75
2022/03/28 00:29:01;;;;;;;;;;;6.70;99.90;;;;;;5024774;28;19925;-75
2022/03/28 00:31:28;;;;;;;;;;;6.80;99.90;;;;;;5022969;28;19932;-78
2022/03/28 00:33:55;;;;;;;;;;;6.80;99.90;;;;;;5024229;28;19933;-75
2022/03/28 00:36:21;;;;;;;;;;;6.80;99.90;;;;;;5030799;28;19926;-75
2022/03/28 00:38:48;;;;;;;;;;;6.80;99.90;;;;;;5032181;28;19925;-75
2022/03/28 00:41:15;;;;;;;;;;;6.80;99.90;;;;;;5015807;28;19941;-73
2022/03/28 00:43:41;;;;;;;;;;;6.70;99.90;;;;;;5001486;28;19936;-74
2022/03/28 00:46:08;;;;;;;;;;;6.70;99.90;;;;;;5024259;28;19925;-74
2022/03/28 00:48:34;;;;;;;;;;;6.70;99.90;;;;;;5028831;28;19932;-75
2022/03/28 00:51:01;;;;;;;;;;;6.70;99.90;;;;;;5032034;28;19925;-75
2022/03/28 00:53:28;;;;;;;;;;;6.70;99.90;;;;;;5023225;28;19925;-74
2022/03/28 00:55:54;;;;;;;;;;;6.70;99.90;;;;;;5028216;28;19926;-75
2022/03/28 00:58:21;;;;;;;;;;;6.70;99.90;;;;;;5016985;28;19925;-75
2022/03/28 01:00:47;;;;;;;;;;;6.70;99.90;;;;;;5017623;28;19926;-75
2022/03/28 01:03:14;;;;;;;;;;;6.60;99.90;;;;;;5020930;28;19929;-74
2022/03/28 01:05:40;;;;;;;;;;;6.60;99.90;;;;;;5002764;28;19929;-75
2022/03/28 01:08:07;;;;;;;;;;;6.60;99.90;;;;;;5027677;28;19933;-75
2022/03/28 01:10:34;;;;;;;;;;;6.50;99.90;;;;;;4999937;28;19933;-75
2022/03/28 01:13:01;;;;;;;;;;;6.60;99.90;;;;;;5022605;28;19984;-75
2022/03/28 01:15:27;;;;;;;;;;;6.60;99.90;;;;;;5021915;28;19925;-75
2022/03/28 01:18:09;;;;;;;;;;;6.60;99.90;;;;;;5028074;28;19933;-75
2022/03/28 01:20:35;;;;;;;;;;;6.60;99.90;;;;;;5027378;28;20495;-75
2022/03/28 01:23:02;;;;;;;;;;;6.50;99.90;;;;;;5027006;28;19932;-75
2022/03/28 01:25:30;;;;;;;;;;;6.40;99.90;;;;;;5013454;28;19925;-75
2022/03/28 01:27:57;;;;;;;;;;;6.30;99.90;;;;;;5022644;28;19965;-75
2022/03/28 01:30:24;;;;;;;;;;;6.20;99.90;;;;;;5015055;28;19929;-74
2022/03/28 01:32:51;;;;;;;;;;;6.10;99.90;;;;;;5024580;28;19933;-74
2022/03/28 01:35:18;;;;;;;;;;;6.30;99.90;;;;;;5028943;28;19929;-75
2022/03/28 01:37:44;;;;;;;;;;;6.30;99.90;;;;;;5025427;28;20364;-74
2022/03/28 01:40:12;;;;;;;;;;;6.40;99.90;;;;;;5007334;28;19929;-75
2022/03/28 01:42:38;;;;;;;;;;;6.30;99.90;;;;;;5023088;28;20015;-75
2022/03/28 01:45:05;;;;;;;;;;;6.30;99.90;;;;;;5012424;28;19932;-76
2022/03/28 01:47:31;;;;;;;;;;;6.40;99.90;;;;;;5017576;28;20393;-74
2022/03/28 01:49:58;;;;;;;;;;;6.50;99.90;;;;;;5021407;28;19930;-75
2022/03/28 01:52:24;;;;;;;;;;;6.50;99.90;;;;;;5032938;28;19936;-75
2022/03/28 01:54:51;;;;;;;;;;;6.40;99.90;;;;;;5005569;28;19934;-76
2022/03/28 01:57:17;;;;;;;;;;;6.40;99.90;;;;;;5026163;28;19926;-74
2022/03/28 01:59:44;;;;;;;;;;;6.50;99.90;;;;;;5022666;28;19925;-75
2022/03/28 02:02:10;;;;;;;;;;;6.50;99.90;;;;;;5027617;28;19928;-74
2022/03/28 02:04:37;;;;;;;;;;;6.40;99.90;;;;;;5028906;28;20300;-78
2022/03/28 02:07:04;;;;;;;;;;;6.30;99.90;;;;;;5022229;28;20376;-74
2022/03/28 02:09:30;;;;;;;;;;;6.30;99.90;;;;;;5020558;28;19932;-74
2022/03/28 02:11:57;;;;;;;;;;;6.30;99.90;;;;;;5019625;28;20059;-75
2022/03/28 02:14:23;;;;;;;;;;;6.30;99.90;;;;;;5021085;28;19933;-75
2022/03/28 02:16:50;;;;;;;;;;;6.30;99.90;;;;;;5022092;28;19952;-74
2022/03/28 02:19:16;;;;;;;;;;;6.10;99.90;;;;;;5029818;28;19944;-73
2022/03/28 02:21:43;;;;;;;;;;;6.20;99.90;;;;;;5029386;28;19933;-75
2022/03/28 02:24:09;;;;;;;;;;;6.30;99.90;;;;;;5018204;28;20335;-75
2022/03/28 02:26:36;;;;;;;;;;;6.30;99.90;;;;;;5001161;28;19925;-75
2022/03/28 02:29:02;;;;;;;;;;;6.10;99.90;;;;;;5025786;28;19948;-74
2022/03/28 02:31:29;;;;;;;;;;;6.10;99.90;;;;;;5011775;28;19926;-76
2022/03/28 02:33:55;;;;;;;;;;;6.20;99.90;;;;;;5020146;28;19925;-75
2022/03/28 02:36:22;;;;;;;;;;;6.20;99.90;;;;;;5027621;28;19936;-74
2022/03/28 02:38:48;;;;;;;;;;;6.10;99.90;;;;;;5025831;28;19932;-73
2022/03/28 02:41:15;;;;;;;;;;;6.00;99.90;;;;;;5028526;28;19932;-75
2022/03/28 02:43:41;;;;;;;;;;;6.00;99.90;;;;;;5029191;28;19938;-77
2022/03/28 02:46:08;;;;;;;;;;;6.10;99.90;;;;;;5017920;28;19926;-75
2022/03/28 02:48:35;;;;;;;;;;;6.10;99.90;;;;;;5022838;28;19979;-74
2022/03/28 02:51:01;;;;;;;;;;;6.10;99.90;;;;;;5024186;28;19933;-75
2022/03/28 02:53:28;;;;;;;;;;;6.00;99.90;;;;;;5025435;28;19926;-75
2022/03/28 02:55:54;;;;;;;;;;;6.00;99.90;;;;;;5013094;28;19925;-75
2022/03/28 02:58:21;;;;;;;;;;;6.00;99.90;;;;;;5019031;28;19932;-75
2022/03/28 03:00:47;;;;;;;;;;;6.40;99.90;;;;;;5018371;28;19939;-75
2022/03/28 03:03:14;;;;;;;;;;;6.20;99.90;;;;;;5007211;28;19940;-74
2022/03/28 03:05:42;;;;;;;;;;;6.20;99.90;;;;;;5030580;28;19925;-75
2022/03/28 03:08:09;;;;;;;;;;;6.10;99.90;;;;;;5024614;28;19929;-75
2022/03/28 03:10:35;;;;;;;;;;;6.00;99.90;;;;;;5028300;28;20407;-75
2022/03/28 03:13:02;;;;;;;;;;;6.00;99.90;;;;;;5011140;28;19930;-75
2022/03/28 03:15:28;;;;;;;;;;;6.10;99.90;;;;;;5022391;28;19929;-75
2022/03/28 03:17:55;;;;;;;;;;;6.10;99.90;;;;;;5019530;28;19925;-75
2022/03/28 03:20:22;;;;;;;;;;;6.20;99.90;;;;;;5029958;28;19925;-76
2022/03/28 03:22:48;;;;;;;;;;;6.40;99.90;;;;;;5026496;28;19925;-76
2022/03/28 03:25:15;;;;;;;;;;;6.50;99.90;;;;;;5024493;28;19929;-75
2022/03/28 03:27:41;;;;;;;;;;;6.30;99.90;;;;;;5019372;28;19929;-74
2022/03/28 03:30:08;;;;;;;;;;;6.40;99.90;;;;;;5017006;28;19925;-75
2022/03/28 03:32:35;;;;;;;;;;;6.40;99.90;;;;;;5019258;28;19965;-75
2022/03/28 03:35:02;;;;;;;;;;;6.40;99.90;;;;;;5023309;28;20007;-75
2022/03/28 03:37:29;;;;;;;;;;;6.50;99.90;;;;;;5023503;28;19925;-75
2022/03/28 03:39:55;;;;;;;;;;;6.50;99.90;;;;;;5023761;28;19933;-75
2022/03/28 03:42:22;;;;;;;;;;;6.50;99.90;;;;;;5028277;28;19925;-77
2022/03/28 03:44:48;;;;;;;;;;;6.30;99.90;;;;;;5030023;28;19940;-78
2022/03/28 03:47:15;;;;;;;;;;;6.00;99.90;;;;;;4996879;28;19933;-75
2022/03/28 03:49:41;;;;;;;;;;;6.20;99.90;;;;;;5016779;28;19926;-75
2022/03/28 03:52:10;;;;;;;;;;;6.10;99.90;;;;;;5027196;28;20090;-74
2022/03/28 03:54:36;;;;;;;;;;;6.00;99.90;;;;;;5018843;28;19930;-75
2022/03/28 03:57:03;;;;;;;;;;;6.00;99.90;;;;;;5025380;28;19955;-75
2022/03/28 03:59:29;;;;;;;;;;;6.10;99.90;;;;;;5017644;28;19926;-75
2022/03/28 04:01:56;;;;;;;;;;;6.20;99.90;;;;;;5012993;28;20377;-75
2022/03/28 04:04:23;;;;;;;;;;;6.20;99.90;;;;;;5025364;28;19925;-75
2022/03/28 04:06:49;;;;;;;;;;;6.30;99.90;;;;;;5030669;28;19925;-74
2022/03/28 04:09:16;;;;;;;;;;;6.20;99.90;;;;;;5030839;28;19968;-75
2022/03/28 04:11:42;;;;;;;;;;;6.20;99.90;;;;;;5020842;28;19929;-75
2022/03/28 04:14:09;;;;;;;;;;;6.20;99.90;;;;;;5025436;28;19929;-75
2022/03/28 04:16:35;;;;;;;;;;;6.30;99.90;;;;;;5025169;28;20434;-78
2022/03/28 04:19:02;;;;;;;;;;;6.30;99.90;;;;;;5021990;28;19925;-75
2022/03/28 04:21:28;;;;;;;;;;;6.30;99.90;;;;;;5027799;28;19948;-75
2022/03/28 04:23:55;;;;;;;;;;;6.20;99.90;;;;;;5007705;28;19936;-76
2022/03/28 04:26:21;;;;;;;;;;;6.20;99.90;;;;;;5014050;28;19930;-75
2022/03/28 04:28:48;;;;;;;;;;;6.10;99.90;;;;;;5030255;28;19933;-75
2022/03/28 04:31:15;;;;;;;;;;;6.00;99.90;;;;;;5027841;28;19925;-75
2022/03/28 04:33:42;;;;;;;;;;;6.10;99.90;;;;;;5034491;28;20430;-75
2022/03/28 04:36:08;;;;;;;;;;;6.00;99.90;;;;;;5020795;28;20380;-73
2022/03/28 04:38:35;;;;;;;;;;;6.00;99.90;;;;;;5031410;28;19929;-74
2022/03/28 04:41:02;;;;;;;;;;;6.00;99.90;;;;;;5020682;28;19926;-75
2022/03/28 04:43:28;;;;;;;;;;;6.00;99.90;;;;;;5014985;28;19935;-75
2022/03/28 04:45:55;;;;;;;;;;;5.90;99.90;;;;;;5021852;28;19936;-78
2022/03/28 04:48:21;;;;;;;;;;;5.90;99.90;;;;;;5022111;28;19932;-74
2022/03/28 04:50:48;;;;;;;;;;;5.80;99.90;;;;;;5021795;28;19929;-75
2022/03/28 04:53:16;;;;;;;;;;;5.60;99.90;;;;;;5035703;28;19928;-76
2022/03/28 04:55:43;;;;;;;;;;;5.60;99.90;;;;;;5012926;28;20347;-74
2022/03/28 04:58:10;;;;;;;;;;;5.70;99.90;;;;;;5029841;28;19925;-75
2022/03/28 05:00:36;;;;;;;;;;;5.60;99.90;;;;;;5018996;28;19932;-75
2022/03/28 05:03:03;;;;;;;;;;;5.60;99.90;;;;;;5028410;28;19925;-75
2022/03/28 05:05:29;;;;;;;;;;;5.70;99.90;;;;;;5008818;28;19933;-74
2022/03/28 05:07:56;;;;;;;;;;;5.70;99.90;;;;;;5020054;28;19933;-75
2022/03/28 05:10:23;;;;;;;;;;;5.70;99.90;;;;;;5025828;28;19925;-75
2022/03/28 05:12:49;;;;;;;;;;;5.80;99.90;;;;;;5032311;28;20335;-75
2022/03/28 05:15:16;;;;;;;;;;;5.70;99.90;;;;;;4998003;28;19929;-75
2022/03/28 05:17:42;;;;;;;;;;;5.80;99.90;;;;;;5002244;28;19972;-75
2022/03/28 05:20:09;;;;;;;;;;;5.90;99.90;;;;;;5021503;28;20043;-75
2022/03/28 05:22:36;;;;;;;;;;;6.00;99.90;;;;;;5007171;28;19959;-75
2022/03/28 05:25:02;;;;;;;;;;;6.10;99.90;;;;;;5000937;28;19929;-75
2022/03/28 05:27:29;;;;;;;;;;;6.10;99.90;;;;;;5016770;28;19929;-75
2022/03/28 05:29:56;;;;;;;;;;;6.10;99.90;;;;;;4997389;28;19930;-75
2022/03/28 05:32:22;;;;;;;;;;;6.00;99.90;;;;;;4999132;28;19944;-75
2022/03/28 05:34:49;;;;;;;;;;;5.90;99.90;;;;;;5014216;28;20443;-75
2022/03/28 05:37:15;;;;;;;;;;;6.00;99.90;;;;;;4998881;28;19936;-75
2022/03/28 05:39:42;;;;;;;;;;;6.00;99.90;;;;;;5013958;28;19925;-73
2022/03/28 05:42:08;;;;;;;;;;;5.80;99.90;;;;;;5014365;28;19956;-76
2022/03/28 05:44:35;;;;;;;;;;;5.60;99.90;;;;;;4997904;28;19929;-75
2022/03/28 05:47:01;;;;;;;;;;;5.70;99.90;;;;;;5014132;28;20404;-78
2022/03/28 05:49:28;;;;;;;;;;;5.60;99.90;;;;;;5003414;28;19933;-75
2022/03/28 05:51:54;;;;;;;;;;;5.60;99.90;;;;;;5015650;28;19925;-75
2022/03/28 05:54:21;;;;;;;;;;;5.50;99.90;;;;;;5021654;28;19925;-75
2022/03/28 05:56:48;;;;;;;;;;;5.30;99.90;;;;;;5017807;28;19932;-75
2022/03/28 05:59:14;;;;;;;;;;;5.40;99.90;;;;;;5004331;28;19925;-76
2022/03/28 06:01:41;;;;;;;;;;;5.20;99.90;;;;;;5004004;28;19972;-78
2022/03/28 06:04:07;;;;;;;;;;;5.20;99.90;;;;;;5000140;28;19925;-76
2022/03/28 06:06:34;;;;;;;;;;;5.30;99.90;;;;;;5000578;28;19933;-75
2022/03/28 06:09:00;;;;;;;;;;;5.30;99.90;;;;;;5020342;28;19925;-75
2022/03/28 06:11:27;;;;;;;;;;;5.40;99.90;;;;;;5017283;28;19929;-75
2022/03/28 06:13:57;;;;;;;;;;;5.30;99.90;;;;;;5015475;28;19929;-75
2022/03/28 06:16:23;;;;;;;;;;;5.30;99.90;;;;;;4995589;28;19987;-75
2022/03/28 06:18:50;;;;;;;;;;;5.30;99.90;;;;;;4999283;28;20020;-75
2022/03/28 06:21:16;;;;;;;;;;;5.40;99.90;;;;;;4999959;28;19972;-73
2022/03/28 06:23:43;;;;;;;;;;;5.40;99.90;;;;;;4995186;28;20411;-77
2022/03/28 06:26:11;;;;;;;;;;;5.40;99.90;;;;;;5012598;28;20385;-75
2022/03/28 06:28:39;;;;;;;;;;;5.40;99.90;;;;;;5015145;28;19933;-75
2022/03/28 06:31:05;;;;;;;;;;;5.30;99.90;;;;;;5001035;28;20428;-75
2022/03/28 06:33:32;;;;;;;;;;;5.40;99.90;;;;;;4995761;28;20384;-75
2022/03/28 06:35:58;;;;;;;;;;;5.50;99.90;;;;;;4998263;28;19932;-75
2022/03/28 06:38:25;;;;;;;;;;;5.40;99.90;;;;;;5012543;28;19925;-75
2022/03/28 06:40:51;;;;;;;;;;;5.60;99.90;;;;;;4998997;28;19925;-75
2022/03/28 06:43:18;;;;;;;;;;;5.50;99.90;;;;;;5012814;28;19996;-75
2022/03/28 06:45:45;;;;;;;;;;;5.50;99.90;;;;;;5012731;28;20345;-75
2022/03/28 06:48:11;;;;;;;;;;;5.50;99.90;;;;;;5012640;28;19988;-75
2022/03/28 06:50:38;;;;;;;;;;;5.50;99.90;;;;;;5013659;28;19925;-75
2022/03/28 06:53:04;;;;;;;;;;;5.30;99.90;;;;;;5020766;28;19926;-75
2022/03/28 06:55:31;;;;;;;;;;;5.30;99.90;;;;;;5017187;28;19952;-75
2022/03/28 06:57:57;;;;;;;;;;;5.40;99.90;;;;;;5018082;28;19941;-77
2022/03/28 07:00:24;;;;;;;;;;;5.40;99.90;;;;;;4997476;28;19948;-76
2022/03/28 07:02:50;;;;;;;;;;;5.40;99.90;;;;;;4998136;28;20281;-75
2022/03/28 07:05:17;;;;;;;;;;;5.40;99.90;;;;;;5014423;28;20266;-75
2022/03/28 07:07:44;;;;;;;;;;;5.50;99.90;;;;;;5015807;28;20000;-75
2022/03/28 07:10:10;;;;;;;;;;;5.80;99.90;;;;;;5001069;28;19933;-78
2022/03/28 07:12:37;;;;;;;;;;;6.10;99.90;;;;;;5018791;28;19933;-73
2022/03/28 07:15:03;;;;;;;;;;;6.20;99.90;;;;;;5015464;28;19933;-74
2022/03/28 07:17:30;;;;;;;;;;;6.10;99.90;;;;;;5015492;28;19925;-73
2022/03/28 07:19:56;;;;;;;;;;;6.20;99.90;;;;;;5024590;28;19935;-75
2022/03/28 07:22:23;;;;;;;;;;;6.20;99.90;;;;;;5020946;28;19932;-75
2022/03/28 07:24:50;;;;;;;;;;;6.00;99.90;;;;;;5020196;28;19932;-75
2022/03/28 07:27:17;;;;;;;;;;;5.80;99.90;;;;;;5012636;28;19925;-75
2022/03/28 07:29:43;;;;;;;;;;;5.70;99.90;;;;;;5013173;28;20012;-75
2022/03/28 07:32:10;;;;;;;;;;;5.60;99.90;;;;;;5012801;28;19936;-76
2022/03/28 07:34:38;;;;;;;;;;;5.50;99.90;;;;;;5016869;28;20369;-76
2022/03/28 07:37:05;;;;;;;;;;;5.50;99.90;;;;;;4997561;28;19929;-75
2022/03/28 07:39:34;;;;;;;;;;;5.50;99.90;;;;;;5006129;28;19925;-76
2022/03/28 07:42:01;;;;;;;;;;;5.60;99.90;;;;;;5001990;28;20026;-75
2022/03/28 07:44:27;;;;;;;;;;;5.60;99.90;;;;;;5018843;28;20300;-76
2022/03/28 07:46:54;;;;;;;;;;;5.60;99.90;;;;;;5000818;28;20023;-75
2022/03/28 07:49:23;;;;;;;;;;;5.60;99.90;;;;;;4998927;28;19929;-76
2022/03/28 07:51:50;;;;;;;;;;;5.70;99.90;;;;;;5010265;28;19929;-76
2022/03/28 07:54:16;;;;;;;;;;;5.70;99.90;;;;;;5023936;28;19988;-78
2022/03/28 07:56:43;;;;;;;;;;;5.70;99.90;;;;;;5013821;28;20354;-76
2022/03/28 07:59:09;;;;;;;;;;;5.70;99.90;;;;;;5002354;28;19929;-76
2022/03/28 08:01:36;;;;;;;;;;;5.70;99.90;;;;;;5002745;28;20120;-76
2022/03/28 08:04:04;;;;;;;;;;;5.70;99.90;;;;;;5024838;28;20304;-77
2022/03/28 08:06:32;;;;;;;;;;;5.70;99.90;;;;;;4997292;28;19933;-76
2022/03/28 08:08:58;;;;;;;;;;;5.70;99.90;;;;;;5001293;28;20357;-76
2022/03/28 08:11:25;;;;;;;;;;;5.90;99.90;;;;;;5024175;28;20412;-76
2022/03/28 08:13:51;;;;;;;;;;;6.00;99.90;;;;;;5025263;28;19929;-78
2022/03/28 08:16:18;;;;;;;;;;;6.10;99.90;;;;;;5020222;28;20403;-78
2022/03/28 08:18:44;;;;;;;;;;;6.10;99.90;;;;;;5004670;28;19968;-76
2022/03/28 08:21:11;;;;;;;;;;;6.00;99.90;;;;;;5021888;28;19932;-75
2022/03/28 08:23:37;;;;;;;;;;;6.00;99.90;;;;;;5005967;28;20115;-76
2022/03/28 08:26:04;;;;;;;;;;;6.00;99.90;;;;;;5009750;28;19929;-77
2022/03/28 08:28:30;;;;;;;;;;;6.20;99.90;;;;;;5010618;28;19933;-76
2022/03/28 08:30:57;;;;;;;;;;;6.30;99.90;;;;;;5014913;28;20015;-76
2022/03/28 08:33:24;;;;;;;;;;;6.20;99.90;;;;;;5019981;28;19926;-76
2022/03/28 08:35:50;;;;;;;;;;;6.20;99.90;;;;;;5018311;28;20377;-80
2022/03/28 08:38:17;;;;;;;;;;;6.10;99.90;;;;;;5019124;28;19933;-76
2022/03/28 08:40:44;;;;;;;;;;;6.20;99.90;;;;;;5026133;28;20399;-76
2022/03/28 08:43:10;;;;;;;;;;;6.20;99.90;;;;;;5017498;28;20381;-76
2022/03/28 08:45:37;;;;;;;;;;;6.10;99.90;;;;;;5014482;28;20376;-76
2022/03/28 08:48:04;;;;;;;;;;;6.10;99.90;;;;;;5009602;28;19930;-77
2022/03/28 08:50:30;;;;;;;;;;;6.20;99.90;;;;;;5013862;28;20344;-76
2022/03/28 08:52:57;;;;;;;;;;;6.20;99.90;;;;;;5029644;28;19933;-76
2022/03/28 08:55:24;;;;;;;;;;;6.20;99.90;;;;;;4999666;28;19932;-76
2022/03/28 08:57:50;;;;;;;;;;;6.30;99.90;;;;;;4995690;28;19936;-78
2022/03/28 09:00:17;;;;;;;;;;;6.30;99.90;;;;;;4996987;28;19935;-75
2022/03/28 09:02:44;;;;;;;;;;;6.40;99.90;;;;;;5021010;28;19932;-76
2022/03/28 09:05:11;;;;;;;;;;;6.40;99.90;;;;;;5025215;28;19929;-77
2022/03/28 09:07:38;;;;;;;;;;;6.40;99.90;;;;;;5001061;28;19929;-76
2022/03/28 09:10:05;;;;;;;;;;;6.40;99.90;;;;;;4996319;28;19937;-77
2022/03/28 09:12:31;;;;;;;;;;;6.30;99.90;;;;;;5010730;28;19929;-77
2022/03/28 09:14:58;;;;;;;;;;;6.40;99.90;;;;;;5009935;28;19952;-77
2022/03/28 09:17:25;;;;;;;;;;;6.50;99.90;;;;;;4997625;28;20009;-79
2022/03/28 09:19:53;;;;;;;;;;;6.50;99.90;;;;;;5002176;28;19930;-76
2022/03/28 09:22:20;;;;;;;;;;;6.50;99.90;;;;;;5006882;28;19929;-76
2022/03/28 09:24:46;;;;;;;;;;;6.50;99.90;;;;;;4998633;28;19999;-77
2022/03/28 09:27:13;;;;;;;;;;;6.60;99.90;;;;;;5003191;28;19930;-76
2022/03/28 09:29:39;;;;;;;;;;;6.90;99.90;;;;;;5000478;28;19929;-76
2022/03/28 09:32:06;;;;;;;;;;;6.80;99.90;;;;;;5013903;28;19955;-76
2022/03/28 09:34:32;;;;;;;;;;;6.80;99.90;;;;;;4996066;28;19926;-76
2022/03/28 09:37:01;;;;;;;;;;;6.80;99.90;;;;;;5007050;28;19936;-76
2022/03/28 09:39:27;;;;;;;;;;;6.90;99.90;;;;;;5004039;28;20032;-76
2022/03/28 09:41:54;;;;;;;;;;;6.90;99.90;;;;;;5004411;28;19936;-76
2022/03/28 09:44:20;;;;;;;;;;;6.90;99.90;;;;;;5001537;28;19940;-77
2022/03/28 09:46:47;;;;;;;;;;;6.90;99.90;;;;;;5004446;28;19948;-76
2022/03/28 09:49:13;;;;;;;;;;;6.90;99.90;;;;;;4999274;28;19945;-78
2022/03/28 09:51:40;;;;;;;;;;;7.00;99.90;;;;;;4992945;28;19956;-76
2022/03/28 09:54:07;;;;;;;;;;;7.20;99.90;;;;;;4996740;28;19934;-76
2022/03/28 09:56:33;;;;;;;;;;;7.20;99.90;;;;;;4990978;28;20016;-77
2022/03/28 09:59:00;;;;;;;;;;;7.10;99.90;;;;;;5005523;28;20369;-77
2022/03/28 10:01:27;;;;;;;;;;;7.10;99.90;;;;;;5001038;28;19930;-79
2022/03/28 10:03:54;;;;;;;;;;;7.20;99.90;;;;;;4996801;28;19936;-76
2022/03/28 10:06:20;;;;;;;;;;;7.20;99.90;;;;;;5000487;28;19979;-77
2022/03/28 10:08:47;;;;;;;;;;;7.30;99.90;;;;;;4996104;28;19937;-76
2022/03/28 10:11:14;;;;;;;;;;;7.40;99.90;;;;;;4998116;28;19936;-76
2022/03/28 10:13:40;;;;;;;;;;;7.40;99.90;;;;;;4998837;28;19929;-76
2022/03/28 10:16:07;;;;;;;;;;;7.40;99.90;;;;;;5007679;28;19929;-76
2022/03/28 10:18:33;;;;;;;;;;;7.40;99.90;;;;;;5006884;28;19929;-76
2022/03/28 10:21:00;;;;;;;;;;;7.40;99.90;;;;;;5021540;28;20387;-77
2022/03/28 10:23:26;;;;;;;;;;;7.50;99.90;;;;;;5010919;28;19932;-78
2022/03/28 10:25:53;;;;;;;;;;;7.60;99.90;;;;;;5021551;28;20361;-76
2022/03/28 10:28:20;;;;;;;;;;;7.50;99.90;;;;;;5023997;28;19933;-77
2022/03/28 10:30:46;;;;;;;;;;;7.50;99.90;;;;;;5021271;28;20028;-76
2022/03/28 10:33:14;;;;;;;;;;;7.60;99.90;;;;;;5017466;28;19925;-76
2022/03/28 10:35:40;;;;;;;;;;;7.60;99.90;;;;;;5026547;28;19951;-76
2022/03/28 10:38:07;;;;;;;;;;;7.70;99.90;;;;;;5000669;28;20016;-76
2022/03/28 10:40:35;;;;;;;;;;;7.80;99.90;;;;;;5023930;28;19925;-76
2022/03/28 10:43:02;;;;;;;;;;;7.80;99.90;;;;;;5016394;28;20036;-76
2022/03/28 10:45:28;;;;;;;;;;;7.80;99.90;;;;;;5003112;28;19929;-79
2022/03/28 10:47:55;;;;;;;;;;;7.80;99.90;;;;;;5019875;28;20277;-76
2022/03/28 10:50:22;;;;;;;;;;;7.80;99.90;;;;;;5015776;28;20308;-77
2022/03/28 10:52:49;;;;;;;;;;;8.00;99.90;;;;;;5016489;28;20518;-77
2022/03/28 10:55:15;;;;;;;;;;;8.00;99.90;;;;;;5015932;28;19946;-77
2022/03/28 10:57:42;;;;;;;;;;;7.90;99.90;;;;;;5011997;28;19929;-76
2022/03/28 11:00:09;;;;;;;;;;;8.00;99.90;;;;;;5010057;28;20380;-76
2022/03/28 11:02:36;;;;;;;;;;;8.20;99.90;;;;;;5021076;28;19929;-76
2022/03/28 11:05:02;;;;;;;;;;;8.40;99.90;;;;;;5022864;28;19929;-76
2022/03/28 11:07:29;;;;;;;;;;;8.40;99.90;;;;;;5000489;28;19929;-76
2022/03/28 11:09:56;;;;;;;;;;;8.40;99.90;;;;;;5017209;28;19925;-76
2022/03/28 11:12:22;;;;;;;;;;;8.40;99.90;;;;;;5001833;28;19995;-76
2022/03/28 11:14:49;;;;;;;;;;;8.30;99.90;;;;;;5026960;28;19929;-76
2022/03/28 11:17:16;;;;;;;;;;;8.30;99.90;;;;;;5010985;28;19932;-76
2022/03/28 11:19:42;;;;;;;;;;;8.30;99.90;;;;;;5013556;28;19929;-76
2022/03/28 11:22:09;;;;;;;;;;;8.30;99.90;;;;;;5007706;28;19929;-76
2022/03/28 11:24:36;;;;;;;;;;;8.40;99.90;;;;;;5013546;28;19975;-77
2022/03/28 11:27:02;;;;;;;;;;;8.50;99.90;;;;;;5022912;28;19929;-77
2022/03/28 11:29:29;;;;;;;;;;;8.60;99.90;;;;;;5017428;28;20376;-76
2022/03/28 11:31:55;;;;;;;;;;;8.70;99.90;;;;;;5017193;28;20541;-77
2022/03/28 11:34:22;;;;;;;;;;;8.70;99.90;;;;;;4994847;28;19969;-76
2022/03/28 11:36:48;;;;;;;;;;;8.60;99.90;;;;;;5006058;28;19929;-76
2022/03/28 11:39:21;;;;;;;;;;;8.60;99.90;;;;;;5017456;28;19939;-77
2022/03/28 11:41:48;;;;;;;;;;;8.80;99.90;;;;;;5016513;28;20385;-76
2022/03/28 11:44:14;;;;;;;;;;;8.80;99.90;;;;;;5006992;28;19929;-78
2022/03/28 11:46:41;;;;;;;;;;;8.90;99.90;;;;;;5028107;28;20788;-77
2022/03/28 11:49:07;;;;;;;;;;;8.80;99.90;;;;;;5005841;28;19944;-77
2022/03/28 11:51:34;;;;;;;;;;;8.90;99.90;;;;;;5019492;28;19929;-77
2022/03/28 11:54:01;;;;;;;;;;;8.90;99.90;;;;;;5020070;28;19925;-76
2022/03/28 11:56:27;;;;;;;;;;;9.10;99.90;;;;;;5001466;28;19934;-77
2022/03/28 11:58:54;;;;;;;;;;;9.10;99.90;;;;;;5025868;28;19929;-76
2022/03/28 12:01:20;;;;;;;;;;;9.20;99.90;;;;;;5031389;28;19929;-76
2022/03/28 12:03:47;;;;;;;;;;;9.20;99.90;;;;;;5016163;28;19940;-76
2022/03/28 12:06:13;;;;;;;;;;;9.30;99.90;;;;;;5019136;28;19926;-77
2022/03/28 12:08:40;;;;;;;;;;;9.40;99.90;;;;;;5017952;28;20383;-79
2022/03/28 12:11:07;;;;;;;;;;;9.50;99.90;;;;;;5022490;28;20456;-76
2022/03/28 12:13:33;;;;;;;;;;;9.50;99.90;;;;;;5021682;28;19935;-76
2022/03/28 12:16:00;;;;;;;;;;;9.60;99.90;;;;;;5001328;28;20744;-77
2022/03/28 12:18:26;;;;;;;;;;;9.60;99.90;;;;;;5026049;28;20388;-76
2022/03/28 12:20:53;;;;;;;;;;;9.50;99.90;;;;;;5007981;28;19926;-76
2022/03/28 12:23:20;;;;;;;;;;;9.50;99.90;;;;;;5001570;28;19933;-77
2022/03/28 12:25:46;;;;;;;;;;;9.50;99.90;;;;;;5024067;28;19928;-77
2022/03/28 12:28:13;;;;;;;;;;;9.40;99.90;;;;;;5028650;28;19929;-76
2022/03/28 12:30:39;;;;;;;;;;;9.60;99.90;;;;;;5028281;28;19929;-79
2022/03/28 12:33:06;;;;;;;;;;;9.60;99.90;;;;;;5003447;28;19938;-76
2022/03/28 12:35:33;;;;;;;;;;;9.50;99.90;;;;;;5028726;28;19945;-77
2022/03/28 12:38:00;;;;;;;;;;;9.50;99.90;;;;;;5001888;28;19926;-77
2022/03/28 12:40:26;;;;;;;;;;;9.50;99.90;;;;;;5012951;28;20443;-77
2022/03/28 12:42:53;;;;;;;;;;;9.60;99.90;;;;;;5007189;28;20365;-77
2022/03/28 12:45:19;;;;;;;;;;;9.70;99.90;;;;;;5018554;28;20352;-77
2022/03/28 12:47:46;;;;;;;;;;;9.80;99.90;;;;;;5026331;28;19929;-77
2022/03/28 12:50:12;;;;;;;;;;;9.80;99.90;;;;;;5028301;28;19929;-77
2022/03/28 12:52:39;;;;;;;;;;;9.70;99.90;;;;;;5004184;28;20280;-77
2022/03/28 12:55:06;;;;;;;;;;;9.60;99.90;;;;;;5006993;28;20535;-77
2022/03/28 12:57:37;;;;;;;;;;;9.80;99.90;;;;;;5005327;28;20019;-75
2022/03/28 13:00:03;;;;;;;;;;;9.80;99.90;;;;;;5008466;28;19929;-76
2022/03/28 13:02:30;;;;;;;;;;;9.90;99.90;;;;;;5010068;28;20407;-77
2022/03/28 13:04:56;;;;;;;;;;;9.90;99.90;;;;;;5015169;28;19960;-76
2022/03/28 13:07:23;;;;;;;;;;;10.00;99.90;;;;;;5009032;28;19937;-78
2022/03/28 13:09:50;;;;;;;;;;;10.20;99.90;;;;;;5019984;28;19933;-76
2022/03/28 13:12:18;;;;;;;;;;;10.30;99.90;;;;;;5017602;28;19936;-76
2022/03/28 13:14:45;;;;;;;;;;;10.30;99.90;;;;;;5014389;28;20012;-78
2022/03/28 13:17:12;;;;;;;;;;;10.10;99.90;;;;;;5022655;28;19929;-77
2022/03/28 13:19:39;;;;;;;;;;;10.00;99.90;;;;;;5017574;28;20032;-77
2022/03/28 13:22:06;;;;;;;;;;;10.10;99.90;;;;;;5020085;28;19929;-77
2022/03/28 13:24:33;;;;;;;;;;;10.00;99.90;;;;;;5025354;28;19929;-77
2022/03/28 13:29:40;;;;;;;;;;;10.50;99.90;;;;;;5014396;28;19956;-77
2022/03/28 13:32:07;;;;;;;;;;;10.60;99.90;;;;;;5006958;28;19933;-76
2022/03/28 13:34:33;;;;;;;;;;;10.70;99.90;;;;;;5005522;28;20012;-76
2022/03/28 13:37:00;;;;;;;;;;;10.40;99.90;;;;;;5015766;28;19931;-76
2022/03/28 13:39:27;;;;;;;;;;;10.50;99.90;;;;;;5011539;28;20012;-76
2022/03/28 13:41:53;;;;;;;;;;;10.60;99.90;;;;;;5013034;28;19933;-76
2022/03/28 13:44:20;;;;;;;;;;;10.50;99.90;;;;;;5014063;28;19937;-76
2022/03/28 13:46:48;;;;;;;;;;;10.50;99.90;;;;;;5019124;28;19929;-78
2022/03/28 13:49:15;;;;;;;;;;;10.40;99.90;;;;;;5015634;28;19929;-76
2022/03/28 13:51:41;;;;;;;;;;;10.30;99.90;;;;;;5016232;28;19933;-76
2022/03/28 13:54:08;;;;;;;;;;;10.20;99.90;;;;;;5024374;28;19925;-76
2022/03/28 13:56:36;;;;;;;;;;;10.10;99.90;;;;;;5010188;28;19930;-76
2022/03/28 13:59:02;;;;;;;;;;;10.20;99.90;;;;;;5007640;28;20019;-76
2022/03/28 14:01:29;;;;;;;;;;;10.30;99.90;;;;;;5006979;28;20016;-76
2022/03/28 14:03:56;;;;;;;;;;;10.40;99.90;;;;;;5011952;28;19929;-76
2022/03/28 14:06:23;;;;;;;;;;;10.40;99.90;;;;;;5015067;28;19985;-76
2022/03/28 14:08:50;;;;;;;;;;;10.30;99.90;;;;;;5002456;28;19980;-76
2022/03/28 14:11:16;;;;;;;;;;;10.40;99.90;;;;;;5017896;28;19929;-76
2022/03/28 14:13:43;;;;;;;;;;;10.30;99.90;;;;;;5013738;28;19932;-76
2022/03/28 14:16:10;;;;;;;;;;;10.30;99.90;;;;;;5009803;28;20844;-76
2022/03/28 14:18:36;;;;;;;;;;;10.20;99.90;;;;;;5019664;28;19935;-77
2022/03/28 14:21:03;;;;;;;;;;;10.10;99.90;;;;;;5017747;28;19939;-76
2022/03/28 14:23:29;;;;;;;;;;;10.20;99.90;;;;;;5020993;28;19937;-76
2022/03/28 14:25:58;;;;;;;;;;;10.30;99.90;;;;;;5017141;28;19936;-76
2022/03/28 14:28:24;;;;;;;;;;;10.20;99.90;;;;;;5003154;28;19926;-76